Terminal Aerodrome Forecast
Issued by NWS

Current Version | Previous Version | Text Only | Print | Product List | Glossary On
Versions: 1 2 3 4 5 6 7 8 9 10 11 12 13 14 15 16 17 18 19 20 21 22 23 24 25 26
000
FTUS43 KLOT 270537
TAFDPA
TAF
KDPA 270537Z 2706/2806 VRB03KT P6SM FEW060
      TEMPO 2710/2712 4SM BR
     FM271900 21003KT P6SM FEW050 SCT200
     FM280200 07003KT P6SM BKN200=

USA.gov is the U.S. government's official web portal to all federal, state and local government web resources and services.